Time;durP1;ratioP1;P1;durP2;ratioP2;P2;SDS_P1;SDS_P2;PMS_P1;PMS_P2;Temp;Humidity;BMP_temperature;BMP_pressure;BME280_temperature;BME280_humidity;BME280_pressure;Samples;Min_cycle;Max_cycle;Signal;HPM_P1;HPM_P2
2023/12/11 00:02:23;;;;;;;1.90;0.50;;;;;;;6.42;100.00;99372.13;5054527;28;20805;-66
2023/12/11 00:04:50;;;;;;;2.20;0.77;;;;;;;6.44;100.00;99369.13;5054123;28;20458;-66
2023/12/11 00:07:17;;;;;;;2.27;0.60;;;;;;;6.42;100.00;99364.06;5054118;28;20836;-66
2023/12/11 00:09:43;;;;;;;1.80;0.40;;;;;;;6.41;100.00;99367.03;5054571;28;20488;-66
2023/12/11 00:12:12;;;;;;;1.80;0.40;;;;;;;6.38;100.00;99363.06;5054305;28;20486;-66
2023/12/11 00:14:38;;;;;;;1.83;0.43;;;;;;;6.39;100.00;99353.91;5054259;28;20531;-66
2023/12/11 00:17:05;;;;;;;1.70;0.40;;;;;;;6.41;100.00;99350.88;5053939;28;20946;-66
2023/12/11 00:19:32;;;;;;;2.10;0.70;;;;;;;6.41;100.00;99340.13;5054282;28;20482;-66
2023/12/11 00:21:59;;;;;;;1.73;0.40;;;;;;;6.39;100.00;99336.97;5053812;28;20446;-66
2023/12/11 00:24:26;;;;;;;2.00;0.57;;;;;;;6.38;100.00;99330.78;5054136;28;20486;-66
2023/12/11 00:26:53;;;;;;;1.90;0.47;;;;;;;6.38;100.00;99324.63;5053708;28;20776;-66
2023/12/11 00:29:21;;;;;;;1.77;0.30;;;;;;;6.39;100.00;99310.06;5054006;28;20442;-66
2023/12/11 00:31:48;;;;;;;1.90;0.50;;;;;;;6.41;100.00;99299.78;5053954;28;20499;-66
2023/12/11 00:34:16;;;;;;;2.30;0.83;;;;;;;6.37;100.00;99290.75;5053268;28;20497;-66
2023/12/11 00:36:44;;;;;;;2.47;0.87;;;;;;;6.31;100.00;99282.78;5054781;28;20454;-66
2023/12/11 00:39:12;;;;;;;1.93;0.57;;;;;;;6.29;100.00;99273.47;5054629;28;20446;-66
2023/12/11 00:41:39;;;;;;;3.27;0.77;;;;;;;6.26;100.00;99266.78;5053769;28;20496;-66
2023/12/11 00:44:06;;;;;;;3.17;0.50;;;;;;;6.25;100.00;99267.88;5054016;28;20458;-66
2023/12/11 00:46:34;;;;;;;2.00;0.50;;;;;;;6.25;100.00;99262.50;5054220;28;20438;-66
2023/12/11 00:49:01;;;;;;;5.80;0.73;;;;;;;6.28;100.00;99243.06;5053771;28;20477;-66
2023/12/11 00:51:27;;;;;;;1.80;0.30;;;;;;;6.23;100.00;99237.81;5053690;28;20434;-66
2023/12/11 00:53:54;;;;;;;1.90;0.57;;;;;;;6.27;100.00;99232.63;5053818;28;20482;-66
2023/12/11 00:56:21;;;;;;;2.00;0.57;;;;;;;6.27;100.00;99229.94;5053712;28;20445;-66
2023/12/11 00:58:48;;;;;;;1.80;0.40;;;;;;;6.30;100.00;99223.94;5053315;28;20454;-66
2023/12/11 01:01:14;;;;;;;2.20;0.70;;;;;;;6.33;100.00;99215.28;5053597;28;20469;-66
2023/12/11 01:03:42;;;;;;;2.13;0.40;;;;;;;6.29;100.00;99209.72;5053261;28;20576;-66
2023/12/11 01:06:09;;;;;;;2.00;0.40;;;;;;;6.28;100.00;99208.09;5053234;28;20842;-66
2023/12/11 01:08:38;;;;;;;1.90;0.43;;;;;;;6.28;100.00;99197.34;5053435;28;20496;-66
2023/12/11 01:11:05;;;;;;;2.30;0.60;;;;;;;6.32;100.00;99194.84;5053484;28;20442;-66
2023/12/11 01:13:32;;;;;;;1.83;0.43;;;;;;;6.35;100.00;99199.63;5053359;28;20485;-66
2023/12/11 01:15:59;;;;;;;2.57;0.80;;;;;;;6.40;100.00;99194.13;5053544;28;20858;-66
2023/12/11 01:18:26;;;;;;;1.90;0.50;;;;;;;6.39;100.00;99180.97;5053235;28;20531;-66
2023/12/11 01:20:54;;;;;;;1.80;0.40;;;;;;;6.41;100.00;99174.19;5053235;28;20430;-66
2023/12/11 01:23:21;;;;;;;3.97;0.90;;;;;;;6.41;100.00;99173.38;5053301;28;20495;-66
2023/12/11 01:25:47;;;;;;;2.00;0.50;;;;;;;6.42;100.00;99170.41;5053236;28;20512;-67
2023/12/11 01:28:14;;;;;;;1.80;0.40;;;;;;;6.45;100.00;99153.63;5053098;28;20434;-66
2023/12/11 01:30:41;;;;;;;2.20;0.70;;;;;;;6.43;100.00;99150.47;5053311;28;20507;-67
2023/12/11 01:33:08;;;;;;;2.10;0.40;;;;;;;6.44;100.00;99143.19;5052801;28;20490;-67
2023/12/11 01:35:34;;;;;;;2.10;0.50;;;;;;;6.47;100.00;99139.91;5052879;28;20508;-66
2023/12/11 01:38:03;;;;;;;1.90;0.40;;;;;;;6.48;100.00;99141.47;5053520;28;20442;-66
2023/12/11 01:40:30;;;;;;;1.80;0.40;;;;;;;6.48;100.00;99115.38;5053226;28;20438;-66
2023/12/11 01:43:11;;;;;;;1.80;0.40;;;;;;;6.47;100.00;99118.38;5053192;28;20434;-66
2023/12/11 01:45:38;;;;;;;2.13;0.50;;;;;;;6.57;100.00;99136.94;5056310;28;20961;-66
2023/12/11 01:48:05;;;;;;;1.83;0.50;;;;;;;6.61;100.00;99124.44;5057563;28;20485;-66
2023/12/11 01:50:32;;;;;;;1.70;0.30;;;;;;;6.55;100.00;99115.72;5057479;28;20465;-66
2023/12/11 01:53:00;;;;;;;2.93;1.00;;;;;;;6.57;100.00;99115.41;5056730;28;20490;-66
2023/12/11 01:55:29;;;;;;;2.40;0.60;;;;;;;6.57;100.00;99113.50;5057271;28;20523;-66
2023/12/11 01:57:57;;;;;;;1.80;0.40;;;;;;;6.63;100.00;99108.00;5056894;28;20442;-66
2023/12/11 02:00:23;;;;;;;1.80;0.37;;;;;;;6.60;100.00;99106.72;5057319;28;20438;-64
2023/12/11 02:02:51;;;;;;;1.80;0.40;;;;;;;6.63;100.00;99113.38;5057439;28;20525;-70
2023/12/11 02:05:18;;;;;;;1.97;0.50;;;;;;;6.66;100.00;99093.91;5057193;28;20462;-67
2023/12/11 02:07:45;;;;;;;2.70;0.50;;;;;;;6.68;100.00;99092.50;5057160;28;20452;-66
2023/12/11 02:10:12;;;;;;;2.03;0.40;;;;;;;6.71;100.00;99081.13;5056692;28;20445;-67
2023/12/11 02:12:42;;;;;;;1.93;0.50;;;;;;;6.73;100.00;99081.59;5056732;28;20485;-67
2023/12/11 02:15:09;;;;;;;2.20;0.60;;;;;;;6.76;100.00;99082.88;5056607;28;20461;-67
2023/12/11 02:17:36;;;;;;;1.97;0.50;;;;;;;6.79;100.00;99066.91;5056629;28;20438;-67
2023/12/11 02:20:04;;;;;;;1.90;0.40;;;;;;;6.76;100.00;99067.50;5056265;28;20519;-67
2023/12/11 02:22:31;;;;;;;1.80;0.47;;;;;;;6.81;100.00;99070.06;5056532;28;20460;-67
2023/12/11 02:25:00;;;;;;;2.30;0.40;;;;;;;6.85;100.00;99072.13;5056460;28;20461;-67
2023/12/11 02:27:29;;;;;;;2.67;1.10;;;;;;;6.88;100.00;99080.38;5055978;28;20529;-67
2023/12/11 02:29:56;;;;;;;2.83;0.87;;;;;;;6.92;100.00;99070.56;5056519;28;20488;-67
2023/12/11 02:32:23;;;;;;;1.80;0.40;;;;;;;6.97;100.00;99067.72;5055949;28;20446;-67
2023/12/11 02:34:50;;;;;;;2.57;0.70;;;;;;;6.99;100.00;99059.31;5056181;28;20627;-67
2023/12/11 02:37:17;;;;;;;1.90;0.40;;;;;;;7.01;100.00;99057.13;5056228;28;20438;-67
2023/12/11 02:39:45;;;;;;;1.90;0.50;;;;;;;7.04;100.00;99051.13;5055879;28;20446;-67
2023/12/11 02:42:12;;;;;;;1.80;0.40;;;;;;;7.07;100.00;99053.16;5056397;28;20778;-67
2023/12/11 02:44:40;;;;;;;1.90;0.47;;;;;;;7.13;100.00;99059.16;5055651;28;20879;-67
2023/12/11 02:47:07;;;;;;;1.80;0.50;;;;;;;7.20;100.00;99043.34;5056395;28;20485;-67
2023/12/11 02:49:33;;;;;;;1.80;0.40;;;;;;;7.20;100.00;99041.44;5056106;28;20438;-67
2023/12/11 02:52:00;;;;;;;1.90;0.60;;;;;;;7.25;100.00;99045.88;5055651;28;20442;-67
2023/12/11 02:54:27;;;;;;;1.80;0.40;;;;;;;7.31;100.00;99044.63;5056089;28;20489;-67
2023/12/11 02:56:54;;;;;;;2.10;0.60;;;;;;;7.39;100.00;99038.44;5054789;28;20442;-67
2023/12/11 02:59:20;;;;;;;1.90;0.50;;;;;;;7.34;100.00;99031.31;5055714;28;20495;-68
2023/12/11 03:01:48;;;;;;;2.33;0.60;;;;;;;7.39;100.00;99038.44;5055861;28;20435;-67
2023/12/11 03:04:15;;;;;;;1.80;0.40;;;;;;;7.49;100.00;99045.41;5055717;28;20546;-67
2023/12/11 03:06:42;;;;;;;1.73;0.30;;;;;;;7.52;100.00;99047.47;5055784;28;20501;-67
2023/12/11 03:09:08;;;;;;;1.90;0.50;;;;;;;7.51;100.00;99035.88;5055631;28;20484;-67
2023/12/11 03:11:35;;;;;;;1.80;0.50;;;;;;;7.51;100.00;99048.56;5055951;28;20485;-66
2023/12/11 03:14:02;;;;;;;1.80;0.37;;;;;;;7.65;100.00;99043.78;5055537;28;20513;-67
2023/12/11 03:16:28;;;;;;;1.90;0.40;;;;;;;7.71;100.00;99041.75;5055659;28;20438;-67
2023/12/11 03:18:56;;;;;;;2.37;0.60;;;;;;;7.75;100.00;99056.97;5055403;28;20504;-67
2023/12/11 03:21:23;;;;;;;1.90;0.40;;;;;;;7.79;100.00;99054.38;5055605;28;20846;-67
2023/12/11 03:23:50;;;;;;;2.93;0.80;;;;;;;7.81;100.00;99060.28;5055591;28;20541;-67
2023/12/11 03:26:16;;;;;;;2.20;0.60;;;;;;;7.84;100.00;99060.44;5055342;28;20442;-67
2023/12/11 03:28:43;;;;;;;1.90;0.60;;;;;;;7.92;100.00;99058.00;5055213;28;20477;-67
2023/12/11 03:31:10;;;;;;;2.20;0.80;;;;;;;7.97;100.00;99072.13;5055868;28;20507;-67
2023/12/11 03:33:37;;;;;;;2.17;0.50;;;;;;;8.00;100.00;99071.47;5054990;28;20825;-68
2023/12/11 03:36:06;;;;;;;1.90;0.53;;;;;;;8.03;100.00;99080.84;5055134;28;20461;-67
2023/12/11 03:38:32;;;;;;;3.30;0.50;;;;;;;8.06;100.00;99081.00;5055205;28;20438;-67
2023/12/11 03:40:59;;;;;;;1.77;0.40;;;;;;;8.07;100.00;99082.56;5055327;28;20442;-67
2023/12/11 03:43:26;;;;;;;2.03;0.60;;;;;;;8.04;100.00;99093.19;5054924;28;20434;-67
2023/12/11 03:45:55;;;;;;;2.00;0.60;;;;;;;8.08;100.00;99077.97;5054665;28;20848;-67
2023/12/11 03:48:21;;;;;;;1.80;0.40;;;;;;;8.09;100.00;99091.13;5055003;28;20818;-67
2023/12/11 03:50:48;;;;;;;2.10;0.70;;;;;;;8.16;100.00;99092.56;5054911;28;20460;-67
2023/12/11 03:53:16;;;;;;;2.10;0.60;;;;;;;8.15;100.00;99083.66;5054357;28;21015;-67
2023/12/11 03:55:43;;;;;;;1.80;0.37;;;;;;;8.16;100.00;99089.84;5054840;28;20533;-67
2023/12/11 03:58:12;;;;;;;1.80;0.40;;;;;;;8.15;100.00;99096.38;5054693;28;20866;-67
2023/12/11 04:00:39;;;;;;;1.80;0.50;;;;;;;8.17;100.00;99097.63;5054623;28;20918;-67
2023/12/11 04:03:05;;;;;;;2.73;0.70;;;;;;;8.19;100.00;99111.59;5054997;28;20496;-67
2023/12/11 04:05:32;;;;;;;2.60;0.93;;;;;;;8.32;100.00;99113.28;5054496;28;20458;-67
2023/12/11 04:07:59;;;;;;;2.27;0.77;;;;;;;8.31;100.00;99116.28;5054345;28;20515;-67
2023/12/11 04:10:27;;;;;;;2.10;0.50;;;;;;;8.32;100.00;99115.19;5054892;28;20438;-67
2023/12/11 04:12:53;;;;;;;1.90;0.40;;;;;;;8.23;100.00;99125.19;5054237;28;20442;-67
2023/12/11 04:15:20;;;;;;;2.87;0.67;;;;;;;8.18;100.00;99115.38;5054287;28;20865;-67
2023/12/11 04:17:47;;;;;;;2.43;0.70;;;;;;;8.16;100.00;99112.22;5054335;28;20837;-67
2023/12/11 04:20:14;;;;;;;2.47;1.00;;;;;;;8.19;100.00;99111.59;5053879;28;20462;-67
2023/12/11 04:22:40;;;;;;;1.80;0.30;;;;;;;8.17;100.00;99126.50;5053960;28;20437;-67
2023/12/11 04:25:07;;;;;;;2.23;0.80;;;;;;;8.17;100.00;99123.78;5053866;28;20545;-68
2023/12/11 04:27:35;;;;;;;8.50;1.00;;;;;;;8.21;100.00;99133.63;5054247;28;20446;-68
2023/12/11 04:30:04;;;;;;;2.00;0.60;;;;;;;8.21;100.00;99128.22;5054102;28;20541;-67
2023/12/11 04:32:31;;;;;;;2.63;0.63;;;;;;;8.19;100.00;99137.72;5053786;28;20454;-67
2023/12/11 04:34:57;;;;;;;2.00;0.60;;;;;;;8.21;100.00;99127.44;5053597;28;20486;-67
2023/12/11 04:37:24;;;;;;;4.60;1.10;;;;;;;8.22;100.00;99137.09;5054112;28;20919;-67
2023/12/11 04:39:51;;;;;;;2.00;0.50;;;;;;;8.21;100.00;99144.41;5053984;28;20438;-68
2023/12/11 04:42:17;;;;;;;2.53;0.87;;;;;;;8.28;100.00;99142.03;5053677;28;20474;-67
2023/12/11 04:44:46;;;;;;;2.00;0.50;;;;;;;8.22;100.00;99140.59;5053489;28;20936;-67
2023/12/11 04:47:12;;;;;;;1.80;0.40;;;;;;;8.24;100.00;99151.88;5053525;28;20949;-67
2023/12/11 04:49:39;;;;;;;2.13;0.73;;;;;;;8.21;100.00;99154.41;5053776;28;20571;-68
2023/12/11 04:52:06;;;;;;;1.90;0.50;;;;;;;8.34;100.00;99156.91;5053862;28;20796;-67
2023/12/11 04:54:33;;;;;;;1.83;0.50;;;;;;;8.29;100.00;99154.38;5053673;28;20569;-67
2023/12/11 04:56:59;;;;;;;5.83;0.87;;;;;;;8.25;100.00;99152.66;5053652;28;20468;-67
2023/12/11 04:59:26;;;;;;;2.47;0.60;;;;;;;8.16;100.00;99149.97;5054104;28;20434;-67
2023/12/11 05:01:54;;;;;;;2.27;0.70;;;;;;;8.12;100.00;99162.50;5053622;28;20492;-67
2023/12/11 05:04:21;;;;;;;2.20;0.77;;;;;;;8.16;100.00;99159.97;5053271;28;20511;-67
2023/12/11 05:06:47;;;;;;;2.07;0.60;;;;;;;8.13;100.00;99164.09;5053747;28;20501;-67
2023/12/11 05:09:14;;;;;;;1.80;0.40;;;;;;;8.09;100.00;99169.31;5053615;28;20857;-67
2023/12/11 05:11:41;;;;;;;2.00;0.60;;;;;;;8.08;100.00;99161.56;5053793;28;20496;-67
2023/12/11 05:14:07;;;;;;;2.00;0.50;;;;;;;8.05;100.00;99160.28;5053010;28;20564;-67
2023/12/11 05:16:34;;;;;;;2.00;0.60;;;;;;;7.99;100.00;99166.97;5053712;28;20489;-67
2023/12/11 05:19:02;;;;;;;1.80;0.40;;;;;;;7.99;100.00;99166.19;5052446;28;20450;-67
2023/12/11 05:21:29;;;;;;;2.10;0.80;;;;;;;8.03;100.00;99164.44;5053619;28;20893;-67
2023/12/11 05:23:56;;;;;;;1.90;0.50;;;;;;;8.03;100.00;99169.81;5053316;28;20458;-67
2023/12/11 05:26:23;;;;;;;2.20;0.80;;;;;;;8.07;100.00;99179.66;5053418;28;20434;-67
2023/12/11 05:28:49;;;;;;;4.47;0.70;;;;;;;8.06;100.00;99177.28;5053389;28;20438;-67
2023/12/11 05:31:16;;;;;;;2.20;0.70;;;;;;;8.07;100.00;99166.16;5053361;28;20438;-67
2023/12/11 05:33:43;;;;;;;1.90;0.60;;;;;;;8.06;100.00;99166.50;5053438;28;20513;-67
2023/12/11 05:36:11;;;;;;;2.00;0.70;;;;;;;8.08;100.00;99175.03;5053289;28;20450;-67
2023/12/11 05:38:38;;;;;;;2.43;0.53;;;;;;;8.06;100.00;99175.38;5053361;28;20856;-67
2023/12/11 05:41:05;;;;;;;1.90;0.47;;;;;;;8.06;100.00;99175.38;5052964;28;20442;-67
2023/12/11 05:43:32;;;;;;;1.90;0.50;;;;;;;8.07;100.00;99181.56;5052920;28;20865;-67
2023/12/11 05:45:59;;;;;;;2.07;0.60;;;;;;;8.05;100.00;99183.75;5053156;28;20495;-67
2023/12/11 05:48:25;;;;;;;1.90;0.50;;;;;;;8.07;100.00;99185.03;5053146;28;20446;-67
2023/12/11 05:50:52;;;;;;;2.20;0.53;;;;;;;8.07;100.00;99184.25;5052484;28;20442;-67
2023/12/11 05:53:20;;;;;;;5.17;1.10;;;;;;;8.14;100.00;99179.16;5052432;28;20881;-67
2023/12/11 05:55:47;;;;;;;1.83;0.43;;;;;;;8.17;100.00;99186.63;5052875;28;20517;-67
2023/12/11 05:58:14;;;;;;;2.30;0.73;;;;;;;8.17;100.00;99183.13;5053096;28;20496;-67
2023/12/11 06:00:40;;;;;;;2.07;0.73;;;;;;;8.20;100.00;99188.69;5052749;28;20820;-67
2023/12/11 06:03:07;;;;;;;2.13;0.80;;;;;;;8.17;100.00;99193.91;5052706;28;20818;-67
2023/12/11 06:05:34;;;;;;;1.93;0.60;;;;;;;8.18;100.00;99190.88;5053106;28;20454;-67
2023/12/11 06:08:01;;;;;;;2.10;0.80;;;;;;;8.21;100.00;99194.88;5052953;28;20442;-67
2023/12/11 06:10:29;;;;;;;2.20;0.73;;;;;;;8.19;100.00;99192.50;5052912;28;20493;-67
2023/12/11 06:12:56;;;;;;;4.90;0.90;;;;;;;8.20;100.00;99194.06;5053292;28;20783;-67
2023/12/11 06:15:23;;;;;;;2.03;0.67;;;;;;;8.21;100.00;99181.38;5052470;28;20544;-67
2023/12/11 06:17:49;;;;;;;2.17;0.73;;;;;;;8.19;100.00;99181.72;5053273;28;20462;-67
2023/12/11 06:20:16;;;;;;;2.30;0.87;;;;;;;8.18;100.00;99182.78;5052410;28;20446;-67
2023/12/11 06:22:43;;;;;;;2.80;0.80;;;;;;;8.19;100.00;99191.69;5052844;28;20473;-67
2023/12/11 06:25:10;;;;;;;2.03;0.50;;;;;;;8.15;100.00;99188.06;5052872;28;20490;-67
2023/12/11 06:27:38;;;;;;;1.97;0.47;;;;;;;8.16;100.00;99187.72;5052904;28;20507;-67
2023/12/11 06:30:07;;;;;;;2.10;0.80;;;;;;;8.16;100.00;99186.94;5052739;28;20477;-67
2023/12/11 06:32:35;;;;;;;2.20;0.60;;;;;;;8.12;100.00;99200.28;5055743;28;20465;-65
2023/12/11 06:35:02;;;;;;;2.00;0.40;;;;;;;8.12;100.00;99192.19;5056160;28;20581;-68
2023/12/11 06:37:28;;;;;;;2.00;0.60;;;;;;;8.12;100.00;99197.56;5056510;28;20850;-67
2023/12/11 06:39:55;;;;;;;2.37;1.23;;;;;;;8.15;100.00;99191.56;5055921;28;20804;-67
2023/12/11 06:42:22;;;;;;;1.90;0.53;;;;;;;8.18;100.00;99203.59;5056346;28;20483;-67
2023/12/11 06:44:50;;;;;;;2.23;0.60;;;;;;;8.17;100.00;99207.41;5055974;28;20458;-67
2023/12/11 06:47:17;;;;;;;3.07;1.10;;;;;;;8.21;100.00;99211.06;5056414;28;20439;-67
2023/12/11 06:49:45;;;;;;;3.13;0.93;;;;;;;8.24;100.00;99205.03;5055980;28;20449;-67
2023/12/11 06:52:13;;;;;;;3.00;1.00;;;;;;;8.22;100.00;99199.94;5055944;28;20442;-67
2023/12/11 06:54:39;;;;;;;2.50;0.80;;;;;;;8.16;100.00;99201.22;5055502;28;20908;-67
2023/12/11 06:57:06;;;;;;;4.37;0.63;;;;;;;8.17;100.00;99202.78;5055862;28;20442;-67
2023/12/11 06:59:33;;;;;;;2.20;0.63;;;;;;;8.15;100.00;99207.72;5055783;28;20434;-67
2023/12/11 07:02:02;;;;;;;2.10;0.73;;;;;;;8.15;100.00;99210.44;5055480;28;20471;-67
2023/12/11 07:04:29;;;;;;;1.83;0.40;;;;;;;8.18;100.00;99212.47;5055297;28;20462;-67
2023/12/11 07:06:55;;;;;;;2.07;0.53;;;;;;;8.20;100.00;99212.97;5055707;28;20910;-67
2023/12/11 07:09:22;;;;;;;2.23;0.67;;;;;;;8.22;100.00;99209.94;5056055;28;20435;-67
2023/12/11 07:11:49;;;;;;;2.13;0.50;;;;;;;8.20;100.00;99210.25;5055250;28;20936;-67
2023/12/11 07:14:15;;;;;;;2.30;0.63;;;;;;;8.21;100.00;99216.44;5055798;28;20571;-67
2023/12/11 07:16:42;;;;;;;2.70;0.67;;;;;;;8.19;100.00;99218.66;5055298;28;20860;-67
2023/12/11 07:19:10;;;;;;;3.80;0.70;;;;;;;8.19;100.00;99224.03;5069523;22;20502;-66
2023/12/11 07:21:37;;;;;;;2.70;1.57;;;;;;;8.17;100.00;99227.06;5055552;28;20438;-66
2023/12/11 07:24:04;;;;;;;2.43;0.87;;;;;;;8.22;100.00;99235.00;5055499;28;20533;-67
2023/12/11 07:26:31;;;;;;;6.23;0.77;;;;;;;8.17;100.00;99240.56;5055486;28;20438;-67
2023/12/11 07:28:59;;;;;;;2.53;0.93;;;;;;;8.23;100.00;99227.69;5055158;28;20444;-67
2023/12/11 07:31:25;;;;;;;2.33;0.70;;;;;;;8.27;100.00;99234.81;5055412;28;20450;-67
2023/12/11 07:33:52;;;;;;;1.87;0.47;;;;;;;8.26;100.00;99241.34;5054931;28;20462;-67
2023/12/11 07:36:21;;;;;;;2.20;0.80;;;;;;;8.30;100.00;99242.28;5055276;28;20946;-68
2023/12/11 07:38:49;;;;;;;1.93;0.53;;;;;;;8.34;100.00;99251.34;5055487;28;20939;-68
2023/12/11 07:41:20;;;;;;;1.80;0.37;;;;;;;8.35;100.00;99244.81;5055110;28;20446;-67
2023/12/11 07:43:46;;;;;;;2.10;0.53;;;;;;;8.32;100.00;99242.78;5054555;28;20541;-67
2023/12/11 07:46:17;;;;;;;3.00;0.90;;;;;;;8.32;100.00;99242.78;5055351;28;20434;-67
2023/12/11 07:48:43;;;;;;;2.40;0.80;;;;;;;8.33;100.00;99244.38;5055335;28;20430;-67
2023/12/11 07:51:18;;;;;;;2.10;0.50;;;;;;;8.28;100.00;99244.53;5054799;28;20438;-66
2023/12/11 07:53:46;;;;;;;1.87;0.43;;;;;;;8.34;100.00;99245.94;5054814;28;20989;-66
2023/12/11 07:56:19;;;;;;;2.00;0.60;;;;;;;8.34;100.00;99237.84;5054475;28;20536;-66
2023/12/11 07:58:45;;;;;;;2.20;0.83;;;;;;;8.37;100.00;99241.03;5054877;28;20415;-66
2023/12/11 08:01:12;;;;;;;2.00;0.50;;;;;;;8.40;100.00;99243.09;5055173;28;20926;-68
2023/12/11 08:03:39;;;;;;;2.13;0.53;;;;;;;8.40;100.00;99245.81;5054724;28;20454;-67
2023/12/11 08:06:08;;;;;;;1.90;0.40;;;;;;;8.42;100.00;99243.59;5054883;28;20430;-66
2023/12/11 08:08:40;;;;;;;2.00;0.50;;;;;;;8.42;100.00;99240.91;5054892;28;20450;-67
2023/12/11 08:11:15;;;;;;;3.00;0.93;;;;;;;8.46;100.00;99239.16;5054695;28;20426;-66
2023/12/11 08:13:42;;;;;;;2.00;0.60;;;;;;;8.47;100.00;99235.34;5054191;28;20545;-66
2023/12/11 08:16:09;;;;;;;3.77;0.63;;;;;;;8.48;100.00;99234.22;5054627;28;20482;-66
2023/12/11 08:18:36;;;;;;;1.87;0.40;;;;;;;8.48;100.00;99239.59;5054330;28;20453;-66
2023/12/11 08:21:03;;;;;;;1.90;0.50;;;;;;;8.44;100.00;99236.75;5054611;28;20427;-66
2023/12/11 08:23:30;;;;;;;1.80;0.40;;;;;;;8.45;100.00;99238.31;5053835;28;20522;-67
2023/12/11 08:25:57;;;;;;;2.10;0.60;;;;;;;8.45;100.00;99242.94;5054271;28;20443;-67
2023/12/11 08:28:25;;;;;;;2.87;0.67;;;;;;;8.43;100.00;99243.25;5054606;28;20484;-67
2023/12/11 08:30:52;;;;;;;2.20;0.60;;;;;;;8.45;100.00;99245.63;5054141;28;20439;-68
2023/12/11 08:33:18;;;;;;;4.07;0.50;;;;;;;8.43;100.00;99245.19;5054418;28;20454;-65
2023/12/11 08:35:45;;;;;;;2.00;0.50;;;;;;;8.40;100.00;99241.19;5054130;28;20484;-65
2023/12/11 08:38:12;;;;;;;2.40;0.60;;;;;;;8.38;100.00;99242.66;5054318;28;20434;-68
2023/12/11 08:40:39;;;;;;;1.80;0.40;;;;;;;8.35;100.00;99239.44;5054140;28;20525;-70
2023/12/11 08:43:06;;;;;;;1.90;0.57;;;;;;;8.35;100.00;99234.03;5054053;28;20500;-67
2023/12/11 08:45:34;;;;;;;2.10;0.50;;;;;;;8.34;100.00;99237.84;5053999;28;20486;-70
2023/12/11 08:48:00;;;;;;;2.57;0.83;;;;;;;8.34;100.00;99226.28;5054303;28;20443;-67
2023/12/11 08:50:27;;;;;;;2.00;0.50;;;;;;;8.35;100.00;99227.84;5053810;28;20438;-67
2023/12/11 08:52:54;;;;;;;1.80;0.40;;;;;;;8.33;100.00;99233.56;5053902;28;20511;-68
2023/12/11 08:55:21;;;;;;;1.90;0.57;;;;;;;8.31;100.00;99233.09;5053001;28;20543;-68
2023/12/11 08:57:47;;;;;;;1.80;0.30;;;;;;;8.31;100.00;99219.59;5053364;28;20938;-68
2023/12/11 09:00:15;;;;;;;2.10;0.60;;;;;;;8.32;100.00;99223.09;5053786;28;20466;-68
2023/12/11 09:02:43;;;;;;;1.80;0.40;;;;;;;8.31;100.00;99233.09;5053651;28;21000;-68
2023/12/11 09:05:10;;;;;;;2.17;0.60;;;;;;;8.32;100.00;99232.00;5053199;28;20458;-68
2023/12/11 09:07:37;;;;;;;1.83;0.43;;;;;;;8.34;100.00;99232.44;5053281;28;20450;-68
2023/12/11 09:10:04;;;;;;;3.23;1.03;;;;;;;8.29;100.00;99229.13;5053602;28;20442;-68
2023/12/11 09:12:31;;;;;;;1.83;0.50;;;;;;;8.22;100.00;99226.91;5053936;28;20537;-67
2023/12/11 09:14:58;;;;;;;2.00;0.60;;;;;;;8.20;100.00;99231.84;5053812;28;20899;-67
2023/12/11 09:17:25;;;;;;;3.60;0.60;;;;;;;8.17;100.00;99237.06;5053512;28;20849;-68
2023/12/11 09:19:53;;;;;;;2.40;0.80;;;;;;;8.13;100.00;99236.13;5053107;28;20450;-67
2023/12/11 09:22:20;;;;;;;1.90;0.50;;;;;;;8.06;100.00;99233.91;5053500;28;20863;-68
2023/12/11 09:24:46;;;;;;;2.00;0.60;;;;;;;8.05;100.00;99240.38;5053169;28;20883;-68
2023/12/11 09:27:13;;;;;;;2.20;0.60;;;;;;;8.06;100.00;99236.59;5053840;28;20489;-68
2023/12/11 09:29:40;;;;;;;1.90;0.50;;;;;;;8.04;100.00;99236.13;5053484;28;20474;-68
2023/12/11 09:32:07;;;;;;;1.77;0.40;;;;;;;8.03;100.00;99234.53;5053552;28;20484;-68
2023/12/11 09:34:34;;;;;;;2.00;0.50;;;;;;;8.04;100.00;99234.22;5052924;28;20489;-67
2023/12/11 09:37:02;;;;;;;2.30;0.83;;;;;;;8.05;100.00;99243.09;5053343;28;20431;-68
2023/12/11 09:39:29;;;;;;;2.73;0.47;;;;;;;8.06;100.00;99242.78;5053771;28;20439;-68
2023/12/11 09:41:57;;;;;;;1.80;0.30;;;;;;;8.04;100.00;99230.72;5053048;28;20929;-68
2023/12/11 09:44:24;;;;;;;1.80;0.40;;;;;;;8.04;100.00;99234.22;5053256;28;20472;-67
2023/12/11 09:46:58;;;;;;;2.00;0.50;;;;;;;8.06;100.00;99237.41;5052974;28;20442;-65
2023/12/11 09:49:25;;;;;;;2.07;0.50;;;;;;;8.08;100.00;99237.84;5053462;28;20430;-67
2023/12/11 09:51:54;;;;;;;1.80;0.40;;;;;;;8.08;100.00;99240.56;5053273;28;20442;-68
2023/12/11 09:54:22;;;;;;;1.90;0.40;;;;;;;8.04;100.00;99236.13;5053107;28;20530;-67
2023/12/11 09:56:49;;;;;;;3.27;0.60;;;;;;;8.07;100.00;99238.19;5052990;28;20554;-73
2023/12/11 09:59:16;;;;;;;2.00;0.60;;;;;;;8.07;100.00;99235.50;5052982;28;20442;-68
2023/12/11 10:01:43;;;;;;;1.90;0.50;;;;;;;8.08;100.00;99239.75;5053444;28;20488;-68
2023/12/11 10:04:09;;;;;;;1.80;0.47;;;;;;;8.01;100.00;99228.66;5052973;28;20485;-68
2023/12/11 10:06:36;;;;;;;1.80;0.40;;;;;;;7.99;100.00;99230.88;5056643;28;20488;-68
2023/12/11 10:09:04;;;;;;;2.10;0.50;;;;;;;8.03;100.00;99219.16;5057229;28;20524;-68
2023/12/11 10:11:33;;;;;;;2.33;0.60;;;;;;;8.01;100.00;99228.66;5057443;28;20441;-68
2023/12/11 10:14:11;;;;;;;1.83;0.40;;;;;;;8.01;100.00;99225.94;5057346;28;20458;-68
2023/12/11 10:16:38;;;;;;;1.80;0.40;;;;;;;8.04;100.00;99228.03;5056447;28;20545;-68
2023/12/11 10:19:05;;;;;;;2.10;0.60;;;;;;;8.04;100.00;99215.34;5056762;28;20457;-68
2023/12/11 10:21:38;;;;;;;2.00;0.60;;;;;;;8.07;100.00;99216.63;5056763;28;20438;-68
2023/12/11 10:24:06;;;;;;;1.90;0.60;;;;;;;8.08;100.00;99213.59;5057299;28;20458;-68
2023/12/11 10:26:38;;;;;;;1.70;0.30;;;;;;;8.08;100.00;99215.50;5056552;28;20496;-68
2023/12/11 10:29:19;;;;;;;1.83;0.40;;;;;;;8.09;100.00;99208.97;5056593;28;20432;-68
2023/12/11 10:31:46;;;;;;;1.90;0.40;;;;;;;8.06;100.00;99206.94;5056316;28;20458;-68
2023/12/11 10:34:13;;;;;;;1.80;0.43;;;;;;;8.02;100.00;99203.28;5057047;28;20454;-68
2023/12/11 10:36:48;;;;;;;2.00;0.60;;;;;;;8.00;100.00;99195.50;5056360;28;20481;-68
2023/12/11 10:39:15;;;;;;;1.90;0.47;;;;;;;8.03;100.00;99191.38;5056185;28;20895;-68
2023/12/11 10:41:45;;;;;;;1.80;0.30;;;;;;;8.06;100.00;99188.84;5056679;28;20473;-68
2023/12/11 10:44:22;;;;;;;1.80;0.40;;;;;;;8.08;100.00;99188.53;5056246;28;20520;-68
2023/12/11 10:46:51;;;;;;;1.80;0.40;;;;;;;8.10;100.00;99186.28;5056050;28;20852;-68
2023/12/11 10:49:19;;;;;;;2.10;0.50;;;;;;;8.09;100.00;99185.50;5056646;28;20473;-68
2023/12/11 10:51:46;;;;;;;1.80;0.33;;;;;;;8.11;100.00;99179.03;5056380;28;20442;-68
2023/12/11 10:54:13;;;;;;;1.90;0.50;;;;;;;8.12;100.00;99177.91;5056125;28;20544;-68
2023/12/11 10:56:43;;;;;;;1.90;0.40;;;;;;;8.15;100.00;99180.75;5055952;28;20568;-68
2023/12/11 10:59:11;;;;;;;2.23;0.60;;;;;;;8.17;100.00;99183.13;5055690;28;20961;-68
2023/12/11 11:01:39;;;;;;;2.83;0.50;;;;;;;8.18;100.00;99177.41;5056044;28;20449;-68
2023/12/11 11:04:08;;;;;;;1.70;0.30;;;;;;;8.20;100.00;99177.91;5055683;28;20891;-68
2023/12/11 11:06:39;;;;;;;1.70;0.40;;;;;;;8.21;100.00;99179.47;5055493;28;20949;-68
2023/12/11 11:09:11;;;;;;;2.10;0.57;;;;;;;8.25;100.00;99175.03;5055673;28;20887;-68
2023/12/11 11:11:46;;;;;;;1.80;0.40;;;;;;;8.33;100.00;99173.44;5056402;28;20431;-68
2023/12/11 11:14:35;;;;;;;1.90;0.50;;;;;;;8.38;100.00;99177.91;5055529;28;20546;-69
2023/12/11 11:17:02;;;;;;;1.80;0.40;;;;;;;8.39;100.00;99168.69;5054988;28;20466;-69
2023/12/11 11:19:29;;;;;;;1.70;0.30;;;;;;;8.42;100.00;99162.66;5055448;28;20826;-69
2023/12/11 11:22:21;;;;;;;1.80;0.40;;;;;;;8.43;100.00;99159.63;5055351;28;20930;-68
2023/12/11 11:24:47;;;;;;;1.87;0.40;;;;;;;8.44;100.00;99155.81;5055524;28;20545;-68
2023/12/11 11:27:43;;;;;;;2.53;0.50;;;;;;;8.52;100.00;99152.28;5055646;28;20805;-69
2023/12/11 11:30:10;;;;;;;2.17;0.50;;;;;;;8.55;100.00;99154.34;5055464;28;20418;-67
2023/12/11 11:32:53;;;;;;;1.77;0.37;;;;;;;8.62;100.00;99158.44;5055772;28;20534;-68
2023/12/11 11:35:54;;;;;;;2.63;0.50;;;;;;;8.66;100.00;99156.69;5055880;28;20982;-68
2023/12/11 11:38:21;;;;;;;2.00;0.60;;;;;;;8.70;100.00;99152.22;5055249;28;20943;-68